createdAt,value
2017-11-09T00:00:38.015Z,39.30
2017-11-09T00:01:47.051Z,40.50
2017-11-09T00:02:51.399Z,38.42
2017-11-09T00:03:59.433Z,39.65
2017-11-09T00:05:07.586Z,40.17
2017-11-09T00:06:15.731Z,40.58
2017-11-09T00:07:18.215Z,40.17
2017-11-09T00:08:23.150Z,38.72
2017-11-09T00:09:26.483Z,38.88
2017-11-09T00:10:28.999Z,38.70
2017-11-09T00:11:32.802Z,40.03
2017-11-09T00:12:40.279Z,38.75
2017-11-09T00:13:43.520Z,38.90
2017-11-09T00:14:46.757Z,38.40
2017-11-09T00:15:49.252Z,40.33
2017-11-09T00:16:51.815Z,38.53
2017-11-09T00:17:55.051Z,39.85
2017-11-09T00:18:57.660Z,39.55
2017-11-09T00:20:00.187Z,39.45
2017-11-09T00:21:02.655Z,38.17
2017-11-09T00:22:05.222Z,38.85
2017-11-09T00:23:07.737Z,37.53
2017-11-09T00:24:10.219Z,39.60
2017-11-09T00:25:13.485Z,38.83
2017-11-09T00:26:16.905Z,38.72
2017-11-09T00:27:19.442Z,38.90
2017-11-09T00:28:22.695Z,38.67
2017-11-09T00:29:26.091Z,40.35
2017-11-09T00:30:29.352Z,39.05
2017-11-09T00:31:31.920Z,40.35
2017-11-09T00:32:34.485Z,40.05
2017-11-09T00:33:36.975Z,39.88
2017-11-09T00:34:39.481Z,40.90
2017-11-09T00:35:41.973Z,38.85
2017-11-09T00:36:44.540Z,40.47
2017-11-09T00:37:47.031Z,40.12
2017-11-09T00:38:49.598Z,41.30
2017-11-09T00:39:52.239Z,39.88
2017-11-09T00:40:54.899Z,39.58
2017-11-09T00:41:57.367Z,40.75
2017-11-09T00:42:59.903Z,37.13
2017-11-09T00:44:02.414Z,39.25
2017-11-09T00:45:05.661Z,40.20
2017-11-09T00:46:08.162Z,40.42
2017-11-09T00:47:10.630Z,37.70
2017-11-09T00:48:13.217Z,38.75
2017-11-09T00:49:16.537Z,38.00
2017-11-09T00:50:19.052Z,37.92
2017-11-09T00:51:22.330Z,39.03
2017-11-09T00:52:24.789Z,39.72
2017-11-09T00:53:27.267Z,38.78
2017-11-09T00:54:29.776Z,39.67
2017-11-09T00:55:32.276Z,38.95
2017-11-09T00:56:34.736Z,38.80
2017-11-09T00:57:37.209Z,37.85
2017-11-09T00:58:39.693Z,39.80
2017-11-09T00:59:42.182Z,37.33
2017-11-09T01:00:44.688Z,40.20
2017-11-09T01:01:47.186Z,40.47
2017-11-09T01:02:50.412Z,38.85
2017-11-09T01:03:52.912Z,39.55
2017-11-09T01:04:55.427Z,38.67
2017-11-09T01:05:57.920Z,37.85
2017-11-09T01:07:00.431Z,39.97
2017-11-09T01:08:03.651Z,39.65
2017-11-09T01:09:06.149Z,40.50
2017-11-09T01:10:08.615Z,36.55
2017-11-09T01:11:11.827Z,36.97
2017-11-09T01:12:14.646Z,39.72
2017-11-09T01:13:17.126Z,37.92
2017-11-09T01:14:20.388Z,38.33
2017-11-09T01:15:22.955Z,38.95
2017-11-09T01:16:25.415Z,38.08
2017-11-09T01:17:28.642Z,38.22
2017-11-09T01:18:31.126Z,38.97
2017-11-09T01:19:33.620Z,38.42
2017-11-09T01:20:36.153Z,37.08
2017-11-09T01:21:38.791Z,40.00
2017-11-09T01:22:41.269Z,38.25
2017-11-09T01:23:43.732Z,37.38
2017-11-09T01:24:46.249Z,38.10
2017-11-09T01:25:48.717Z,39.42
2017-11-09T01:26:51.258Z,37.45
2017-11-09T01:27:53.755Z,38.40
2017-11-09T01:28:56.235Z,38.85
2017-11-09T01:29:59.451Z,38.13
2017-11-09T01:31:01.948Z,39.92
2017-11-09T01:32:04.417Z,37.53
2017-11-09T01:33:06.900Z,36.88
2017-11-09T01:34:09.367Z,38.38
2017-11-09T01:35:12.586Z,37.92
2017-11-09T01:36:15.098Z,39.15
2017-11-09T01:37:17.570Z,39.42
2017-11-09T01:38:20.819Z,37.88
2017-11-09T01:39:24.044Z,39.20
2017-11-09T01:40:27.294Z,38.85
2017-11-09T01:41:30.551Z,38.17
2017-11-09T01:42:33.088Z,37.47
2017-11-09T01:43:35.586Z,38.42
2017-11-09T01:44:38.811Z,36.25
2017-11-09T01:45:41.275Z,37.10
2017-11-09T01:46:43.753Z,38.08
2017-11-09T01:47:46.202Z,38.80
2017-11-09T01:48:49.460Z,37.50
2017-11-09T01:49:51.936Z,36.95
2017-11-09T01:50:54.422Z,36.58
2017-11-09T01:51:56.920Z,37.55
2017-11-09T01:53:00.164Z,36.83
2017-11-09T01:54:03.386Z,38.28
2017-11-09T01:55:06.157Z,37.70
2017-11-09T01:56:08.629Z,36.58
2017-11-09T01:57:11.192Z,37.55
2017-11-09T01:58:14.435Z,39.05
2017-11-09T01:59:17.721Z,38.45
2017-11-09T02:00:20.196Z,37.70
2017-11-09T02:01:22.730Z,38.08
2017-11-09T02:02:26.019Z,38.70
2017-11-09T02:03:28.493Z,37.50
2017-11-09T02:04:31.733Z,37.15
2017-11-09T02:05:34.981Z,35.55
2017-11-09T02:06:38.199Z,38.20
2017-11-09T02:07:40.753Z,35.97
2017-11-09T02:08:43.988Z,38.72
2017-11-09T02:09:47.216Z,35.50
2017-11-09T02:10:50.504Z,37.08
2017-11-09T02:11:52.982Z,36.83
2017-11-09T02:12:55.487Z,36.15
2017-11-09T02:13:57.947Z,36.50
2017-11-09T02:15:01.213Z,35.90
2017-11-09T02:16:03.679Z,37.40
2017-11-09T02:17:06.192Z,35.50
2017-11-09T02:18:08.664Z,34.88
2017-11-09T02:19:11.115Z,38.45
2017-11-09T02:20:13.594Z,35.42
2017-11-09T02:21:16.056Z,38.30
2017-11-09T02:22:18.549Z,36.78
2017-11-09T02:23:21.034Z,37.78
2017-11-09T02:24:23.525Z,35.72
2017-11-09T02:25:26.786Z,37.08
2017-11-09T02:26:29.298Z,38.28
2017-11-09T02:27:32.652Z,36.55
2017-11-09T02:28:35.153Z,38.88
2017-11-09T02:29:38.407Z,36.70
2017-11-09T02:30:41.670Z,36.88
2017-11-09T02:31:44.173Z,36.78
2017-11-09T02:32:47.428Z,34.60
2017-11-09T02:33:49.967Z,38.08
2017-11-09T02:34:52.486Z,36.75
2017-11-09T02:35:54.986Z,37.60
2017-11-09T02:36:58.258Z,37.53
2017-11-09T02:38:00.746Z,37.63
2017-11-09T02:39:03.999Z,37.13
2017-11-09T02:40:07.276Z,37.55
2017-11-09T02:41:09.739Z,36.63
2017-11-09T02:42:13.027Z,36.58
2017-11-09T02:43:15.603Z,37.90
2017-11-09T02:44:18.114Z,37.15
2017-11-09T02:45:20.619Z,37.92
2017-11-09T02:46:23.133Z,37.85
2017-11-09T02:47:25.660Z,38.13
2017-11-09T02:48:28.131Z,37.50
2017-11-09T02:49:30.627Z,37.05
2017-11-09T02:50:33.122Z,38.00
2017-11-09T02:51:36.364Z,37.08
2017-11-09T02:52:39.596Z,38.00
2017-11-09T02:53:42.090Z,36.03
2017-11-09T02:54:44.563Z,36.15
2017-11-09T02:55:47.144Z,38.30
2017-11-09T02:56:49.637Z,38.15
2017-11-09T02:57:52.176Z,36.83
2017-11-09T02:58:54.663Z,36.92
2017-11-09T02:59:57.141Z,36.35
2017-11-09T03:00:59.649Z,39.35
2017-11-09T03:02:02.110Z,38.55
2017-11-09T03:03:04.570Z,37.88
2017-11-09T03:04:07.045Z,38.25
2017-11-09T03:05:09.504Z,38.75
2017-11-09T03:06:12.766Z,37.53
2017-11-09T03:07:15.245Z,37.80
2017-11-09T03:08:17.708Z,37.40
2017-11-09T03:09:20.174Z,35.88
2017-11-09T03:10:22.647Z,36.60
2017-11-09T03:11:26.023Z,38.25
2017-11-09T03:12:28.491Z,37.90
2017-11-09T03:13:31.051Z,37.15
2017-11-09T03:14:33.531Z,39.03
2017-11-09T03:15:36.094Z,39.05
2017-11-09T03:16:39.357Z,36.83
2017-11-09T03:17:41.829Z,37.60
2017-11-09T03:18:45.066Z,36.80
2017-11-09T03:19:47.558Z,39.22
2017-11-09T03:20:50.028Z,37.20
2017-11-09T03:21:52.491Z,37.50
2017-11-09T03:22:55.739Z,38.00
2017-11-09T03:23:58.263Z,35.45
2017-11-09T03:25:00.719Z,35.95
2017-11-09T03:26:03.261Z,37.38
2017-11-09T03:27:05.730Z,35.85
2017-11-09T03:28:08.987Z,37.75
2017-11-09T03:29:11.504Z,37.08
2017-11-09T03:30:14.057Z,37.17
2017-11-09T03:31:16.517Z,36.25
2017-11-09T03:32:19.069Z,37.75
2017-11-09T03:33:22.908Z,36.53
2017-11-09T03:34:25.463Z,37.67
2017-11-09T03:35:27.928Z,35.08
2017-11-09T03:36:30.416Z,36.72
2017-11-09T03:37:32.960Z,37.30
2017-11-09T03:38:35.434Z,37.28
2017-11-09T03:39:37.995Z,37.05
2017-11-09T03:40:40.465Z,36.70
2017-11-09T03:41:42.932Z,37.67
2017-11-09T03:42:45.441Z,36.17
2017-11-09T03:43:48.670Z,36.42
2017-11-09T03:44:51.134Z,37.10
2017-11-09T03:45:53.603Z,38.13
2017-11-09T03:46:56.082Z,37.45
2017-11-09T03:47:58.538Z,35.80
2017-11-09T03:49:01.044Z,37.03
2017-11-09T03:50:03.511Z,35.42
2017-11-09T03:51:05.978Z,35.58
2017-11-09T03:52:08.469Z,37.70
2017-11-09T03:53:10.942Z,36.42
2017-11-09T03:54:13.399Z,38.03
2017-11-09T03:55:16.148Z,36.08
2017-11-09T03:56:18.665Z,36.30
2017-11-09T03:57:21.142Z,36.13
2017-11-09T03:58:23.629Z,35.88
2017-11-09T03:59:26.090Z,38.78
2017-11-09T04:00:28.600Z,37.60
2017-11-09T04:01:31.088Z,36.63
2017-11-09T04:02:33.594Z,37.75
2017-11-09T04:03:36.082Z,36.22
2017-11-09T04:04:38.546Z,36.08
2017-11-09T04:05:41.010Z,37.33
2017-11-09T04:06:44.246Z,36.00
2017-11-09T04:07:46.739Z,34.90
2017-11-09T04:08:49.225Z,36.50
2017-11-09T04:09:51.734Z,36.63
2017-11-09T04:10:54.969Z,36.17
2017-11-09T04:11:58.172Z,37.15
2017-11-09T04:13:00.638Z,37.58
2017-11-09T04:14:03.873Z,36.38
2017-11-09T04:15:07.144Z,37.20
2017-11-09T04:16:10.168Z,36.35
2017-11-09T04:17:13.419Z,37.03
2017-11-09T04:18:15.957Z,37.20
2017-11-09T04:19:18.437Z,36.90
2017-11-09T04:20:21.677Z,36.53
2017-11-09T04:21:24.127Z,35.90
2017-11-09T04:22:27.364Z,37.20
2017-11-09T04:23:30.596Z,35.92
2017-11-09T04:24:33.844Z,38.70
2017-11-09T04:25:37.070Z,38.17
2017-11-09T04:26:39.561Z,36.80
2017-11-09T04:27:42.055Z,37.83
2017-11-09T04:28:44.545Z,39.05
2017-11-09T04:29:47.041Z,36.13
2017-11-09T04:30:49.536Z,35.55
2017-11-09T04:31:52.777Z,35.35
2017-11-09T04:34:06.834Z,38.47
2017-11-09T04:35:10.231Z,37.92
2017-11-09T04:36:12.681Z,36.15
2017-11-09T04:37:15.956Z,36.97
2017-11-09T04:38:18.414Z,38.35
2017-11-09T04:39:21.004Z,37.60
2017-11-09T04:40:23.482Z,36.70
2017-11-09T04:41:26.148Z,36.53
2017-11-09T04:42:28.634Z,38.67
2017-11-09T04:43:31.098Z,38.63
2017-11-09T04:44:33.846Z,36.60
2017-11-09T04:45:36.328Z,35.65
2017-11-09T04:46:38.803Z,37.60
2017-11-09T04:47:41.307Z,38.30
2017-11-09T04:48:43.780Z,37.83
2017-11-09T04:49:46.294Z,36.10
2017-11-09T04:50:48.759Z,36.60
2017-11-09T04:51:52.022Z,38.58
2017-11-09T04:52:54.560Z,36.20
2017-11-09T04:53:57.105Z,36.92
2017-11-09T04:54:59.606Z,37.10
2017-11-09T04:56:02.089Z,38.33
2017-11-09T04:57:04.662Z,38.67
2017-11-09T04:58:07.193Z,37.17
2017-11-09T04:59:09.678Z,36.28
2017-11-09T05:00:12.159Z,39.00
2017-11-09T05:01:14.645Z,38.15
2017-11-09T05:02:17.914Z,37.33
2017-11-09T05:03:20.505Z,38.70
2017-11-09T05:04:23.000Z,36.92
2017-11-09T05:05:25.455Z,37.75
2017-11-09T05:06:28.743Z,36.38
2017-11-09T05:07:31.204Z,36.92
2017-11-09T05:08:33.777Z,35.85
2017-11-09T05:09:36.292Z,37.15
2017-11-09T05:10:38.800Z,37.45
2017-11-09T05:11:42.034Z,37.33
2017-11-09T05:12:45.301Z,37.75
2017-11-09T05:13:48.544Z,36.90
2017-11-09T05:14:51.027Z,35.97
2017-11-09T05:15:54.255Z,37.10
2017-11-09T05:16:56.743Z,36.85
2017-11-09T05:17:59.240Z,37.53
2017-11-09T05:19:01.724Z,38.47
2017-11-09T05:20:04.248Z,37.70
2017-11-09T05:21:06.704Z,36.50
2017-11-09T05:22:09.274Z,36.55
2017-11-09T05:23:11.785Z,38.53
2017-11-09T05:24:15.033Z,37.15
2017-11-09T05:25:17.529Z,35.95
2017-11-09T05:26:20.003Z,36.53
2017-11-09T05:27:22.509Z,37.40
2017-11-09T05:28:25.744Z,37.70
2017-11-09T05:29:29.027Z,38.72
2017-11-09T05:30:31.491Z,38.35
2017-11-09T05:31:33.964Z,37.75
2017-11-09T05:32:36.443Z,36.42
2017-11-09T05:33:38.905Z,37.20
2017-11-09T05:34:41.400Z,37.53
2017-11-09T05:35:44.636Z,38.25
2017-11-09T05:36:47.862Z,36.95
2017-11-09T05:37:51.144Z,38.78
2017-11-09T05:38:53.629Z,35.33
2017-11-09T05:39:56.920Z,38.78
2017-11-09T05:40:59.403Z,38.17
2017-11-09T05:42:01.960Z,37.10
2017-11-09T05:43:05.210Z,36.05
2017-11-09T05:44:07.714Z,37.92
2017-11-09T05:45:10.959Z,37.05
2017-11-09T05:46:13.546Z,36.55
2017-11-09T05:47:16.047Z,36.35
2017-11-09T05:48:18.525Z,37.20
2017-11-09T05:49:21.003Z,36.10
2017-11-09T05:50:23.557Z,35.72
2017-11-09T05:51:26.056Z,36.90
2017-11-09T05:52:28.527Z,35.97
2017-11-09T05:53:30.979Z,36.38
2017-11-09T05:54:33.465Z,35.50
2017-11-09T05:55:35.951Z,37.38
2017-11-09T05:56:38.447Z,36.60
2017-11-09T05:57:41.671Z,37.70
2017-11-09T05:58:44.899Z,36.92
2017-11-09T05:59:47.402Z,36.80
2017-11-09T06:00:49.871Z,37.65
2017-11-09T06:01:53.135Z,37.80
2017-11-09T06:02:55.623Z,34.95
2017-11-09T06:03:58.090Z,36.13
2017-11-09T06:05:00.582Z,38.40
2017-11-09T06:06:03.067Z,35.25
2017-11-09T06:07:05.566Z,36.75
2017-11-09T06:08:08.044Z,36.17
2017-11-09T06:09:10.518Z,36.30
2017-11-09T06:10:12.972Z,35.40
2017-11-09T06:11:15.481Z,35.85
2017-11-09T06:12:17.953Z,37.15
2017-11-09T06:13:20.462Z,36.30
2017-11-09T06:14:22.941Z,37.63
2017-11-09T06:15:25.420Z,37.55
2017-11-09T06:16:28.710Z,36.55
2017-11-09T06:17:31.248Z,35.42
2017-11-09T06:18:34.130Z,37.03
2017-11-09T06:19:36.703Z,37.05
2017-11-09T06:20:39.249Z,37.55
2017-11-09T06:21:41.735Z,35.92
2017-11-09T06:22:44.960Z,38.28
2017-11-09T06:23:48.207Z,36.50
2017-11-09T06:24:51.460Z,36.78
2017-11-09T06:25:54.706Z,37.38
2017-11-09T06:26:57.192Z,36.17
2017-11-09T06:27:59.972Z,36.47
2017-11-09T06:29:02.486Z,35.97
2017-11-09T06:30:05.711Z,36.05
2017-11-09T06:31:08.933Z,35.63
2017-11-09T06:32:11.495Z,37.72
2017-11-09T06:33:14.042Z,38.60
2017-11-09T06:34:16.494Z,37.63
2017-11-09T06:35:18.990Z,36.17
2017-11-09T06:36:21.452Z,36.10
2017-11-09T06:37:23.947Z,36.90
2017-11-09T06:38:26.469Z,36.28
2017-11-09T06:39:28.928Z,35.85
2017-11-09T06:40:31.503Z,38.58
2017-11-09T06:41:33.976Z,36.40
2017-11-09T06:42:36.466Z,37.83
2017-11-09T06:43:38.934Z,36.40
2017-11-09T06:44:41.402Z,38.15
2017-11-09T06:45:43.932Z,36.92
2017-11-09T06:46:46.394Z,36.85
2017-11-09T06:47:49.707Z,36.17
2017-11-09T06:48:52.218Z,37.85
2017-11-09T06:49:54.693Z,37.25
2017-11-09T06:50:57.171Z,36.72
2017-11-09T06:52:00.412Z,37.13
2017-11-09T06:53:02.906Z,39.70
2017-11-09T06:54:05.474Z,38.13
2017-11-09T06:55:07.960Z,37.40
2017-11-09T06:56:10.431Z,37.20
2017-11-09T06:57:12.950Z,35.80
2017-11-09T06:58:15.432Z,38.72
2017-11-09T06:59:17.948Z,38.92
2017-11-09T07:00:20.415Z,38.38
2017-11-09T07:01:22.894Z,35.63
2017-11-09T07:02:26.904Z,38.50
2017-11-09T07:03:29.366Z,38.28
2017-11-09T07:04:31.868Z,37.90
2017-11-09T07:05:34.343Z,37.15
2017-11-09T07:06:36.808Z,38.75
2017-11-09T07:07:39.263Z,39.78
2017-11-09T07:08:41.721Z,37.85
2017-11-09T07:09:44.221Z,38.83
2017-11-09T07:10:46.749Z,38.17
2017-11-09T07:11:49.233Z,36.13
2017-11-09T07:12:51.704Z,36.95
2017-11-09T07:13:54.958Z,38.67
2017-11-09T07:14:57.545Z,38.00
2017-11-09T07:16:00.015Z,37.28
2017-11-09T07:17:02.503Z,37.53
2017-11-09T07:18:04.967Z,38.75
2017-11-09T07:19:08.204Z,37.45
2017-11-09T07:20:10.713Z,37.33
2017-11-09T07:21:13.182Z,37.33
2017-11-09T07:22:16.417Z,36.10
2017-11-09T07:23:19.642Z,37.63
2017-11-09T07:24:22.110Z,36.53
2017-11-09T07:25:24.596Z,36.25
2017-11-09T07:26:27.868Z,37.70
2017-11-09T07:27:30.379Z,37.13
2017-11-09T07:28:33.607Z,36.25
2017-11-09T07:29:36.882Z,35.60
2017-11-09T07:30:39.373Z,35.55
2017-11-09T07:31:42.607Z,37.63
2017-11-09T07:32:45.872Z,37.47
2017-11-09T07:33:49.100Z,35.83
2017-11-09T07:34:51.579Z,36.15
2017-11-09T07:35:54.043Z,34.90
2017-11-09T07:36:56.503Z,34.35
2017-11-09T07:37:59.006Z,36.60
2017-11-09T07:39:02.227Z,35.30
2017-11-09T07:40:04.703Z,36.13
2017-11-09T07:41:07.169Z,35.10
2017-11-09T07:42:09.639Z,34.63
2017-11-09T07:43:12.127Z,35.50
2017-11-09T07:44:14.622Z,32.83
2017-11-09T07:45:17.086Z,33.88
2017-11-09T07:46:19.615Z,34.15
2017-11-09T07:47:22.886Z,34.63
2017-11-09T07:48:25.404Z,32.70
2017-11-09T07:49:28.637Z,34.63
2017-11-09T07:50:31.896Z,34.65
2017-11-09T07:51:34.377Z,33.55
2017-11-09T07:52:37.004Z,33.80
2017-11-09T07:53:39.494Z,35.17
2017-11-09T07:54:41.963Z,34.60
2017-11-09T07:55:44.426Z,35.25
2017-11-09T07:56:46.899Z,36.35
2017-11-09T07:57:49.488Z,34.75
2017-11-09T07:58:51.990Z,35.38
2017-11-09T07:59:55.242Z,35.10
2017-11-09T08:00:58.078Z,36.95
2017-11-09T08:02:00.611Z,33.90
2017-11-09T08:03:03.072Z,37.55
2017-11-09T08:04:05.575Z,35.42
2017-11-09T08:05:08.057Z,36.25
2017-11-09T08:06:11.280Z,37.63
2017-11-09T08:07:13.892Z,34.40
2017-11-09T08:08:16.576Z,35.75
2017-11-09T08:09:19.893Z,34.33
2017-11-09T08:10:22.458Z,35.33
2017-11-09T08:11:24.928Z,35.03
2017-11-09T08:12:27.391Z,35.25
2017-11-09T08:13:29.913Z,36.13
2017-11-09T08:14:33.262Z,34.10
2017-11-09T08:15:35.732Z,34.08
2017-11-09T08:16:38.835Z,34.92
2017-11-09T08:17:41.349Z,33.80
2017-11-09T08:18:43.815Z,34.10
2017-11-09T08:19:46.311Z,33.38
2017-11-09T08:20:48.795Z,35.28
2017-11-09T08:21:51.284Z,33.88
2017-11-09T08:22:53.780Z,34.00
2017-11-09T08:24:01.484Z,34.75
2017-11-09T08:25:06.539Z,34.45
2017-11-09T08:26:13.361Z,33.33
2017-11-09T08:27:19.638Z,33.03
2017-11-09T08:28:25.551Z,34.80
2017-11-09T08:29:33.243Z,33.60
2017-11-09T08:30:36.681Z,35.63
2017-11-09T08:31:42.125Z,34.47
2017-11-09T08:32:46.223Z,36.17
2017-11-09T08:33:48.697Z,34.22
2017-11-09T08:34:51.970Z,36.63
2017-11-09T08:35:54.455Z,34.85
2017-11-09T08:36:56.908Z,32.67
2017-11-09T08:37:59.411Z,35.20
2017-11-09T08:39:01.888Z,34.03
2017-11-09T08:40:04.382Z,34.60
2017-11-09T08:41:06.896Z,35.13
2017-11-09T08:42:10.127Z,35.03
2017-11-09T08:43:12.605Z,34.13
2017-11-09T08:44:15.078Z,34.83
2017-11-09T08:45:17.579Z,35.30
2017-11-09T08:46:20.083Z,33.88
2017-11-09T08:47:22.582Z,34.60
2017-11-09T08:48:25.774Z,35.15
2017-11-09T08:49:28.285Z,33.97
2017-11-09T08:50:30.738Z,33.08
2017-11-09T08:51:33.212Z,32.80
2017-11-09T08:52:35.687Z,38.35
2017-11-09T08:53:38.254Z,34.30
2017-11-09T08:54:40.776Z,35.88
2017-11-09T08:55:43.246Z,35.03
2017-11-09T08:56:45.773Z,33.97
2017-11-09T08:57:48.282Z,35.97
2017-11-09T08:58:50.740Z,35.38
2017-11-09T08:59:53.203Z,35.60
2017-11-09T09:00:55.674Z,35.42
2017-11-09T09:01:58.154Z,35.25
2017-11-09T09:03:00.645Z,35.03
2017-11-09T09:04:03.894Z,34.80
2017-11-09T09:05:07.153Z,35.53
2017-11-09T09:06:10.405Z,35.22
2017-11-09T09:07:12.874Z,36.03
2017-11-09T09:08:15.379Z,36.58
2017-11-09T09:09:17.856Z,34.97
2017-11-09T09:10:21.075Z,36.25
2017-11-09T09:11:23.564Z,35.70
2017-11-09T09:12:26.165Z,32.67
2017-11-09T09:13:28.684Z,36.20
2017-11-09T09:14:31.150Z,35.75
2017-11-09T09:15:33.633Z,36.22
2017-11-09T09:16:36.903Z,37.88
2017-11-09T09:17:39.426Z,34.70
2017-11-09T09:18:41.891Z,35.40
2017-11-09T09:19:44.370Z,37.20
2017-11-09T09:20:58.578Z,35.35
2017-11-09T09:22:01.571Z,35.35
2017-11-09T09:23:04.840Z,35.92
2017-11-09T09:24:14.070Z,35.25
2017-11-09T09:25:16.540Z,36.75
2017-11-09T09:26:19.786Z,36.00
2017-11-09T09:27:36.986Z,36.33
2017-11-09T09:30:19.470Z,33.22
2017-11-09T09:31:21.945Z,35.70
2017-11-09T09:32:24.449Z,34.83
2017-11-09T09:33:37.878Z,34.00
2017-11-09T09:35:01.182Z,34.08
2017-11-09T09:36:06.491Z,33.38
2017-11-09T09:37:20.239Z,34.83
2017-11-09T09:38:28.648Z,34.92
2017-11-09T09:39:35.509Z,33.35
2017-11-09T09:40:39.582Z,36.13
2017-11-09T09:41:42.803Z,36.35
2017-11-09T09:42:45.303Z,35.00
2017-11-09T09:43:47.776Z,37.03
2017-11-09T09:44:50.238Z,35.88
2017-11-09T09:45:52.730Z,35.70
2017-11-09T09:46:56.031Z,36.45
2017-11-09T09:47:58.513Z,35.70
2017-11-09T09:49:01.476Z,36.58
2017-11-09T09:50:03.941Z,35.85
2017-11-09T09:51:07.174Z,34.45
2017-11-09T09:52:10.407Z,36.35
2017-11-09T09:53:13.001Z,33.78
2017-11-09T09:54:15.468Z,36.83
2017-11-09T09:55:18.710Z,35.97
2017-11-09T09:56:22.006Z,34.72
2017-11-09T09:57:24.510Z,36.80
2017-11-09T09:58:26.980Z,38.17
2017-11-09T09:59:29.668Z,36.22
2017-11-09T10:00:32.132Z,37.50
2017-11-09T10:01:34.609Z,37.75
2017-11-09T10:02:37.186Z,35.67
2017-11-09T10:03:39.671Z,35.65
2017-11-09T10:04:42.255Z,35.97
2017-11-09T10:05:44.833Z,34.83
2017-11-09T10:06:47.323Z,35.05
2017-11-09T10:07:50.597Z,36.22
2017-11-09T10:08:53.080Z,37.17
2017-11-09T10:09:55.555Z,33.13
2017-11-09T10:10:58.046Z,36.10
2017-11-09T10:12:01.283Z,35.88
2017-11-09T10:13:03.774Z,36.13
2017-11-09T10:14:06.272Z,38.45
2017-11-09T10:15:08.731Z,33.60
2017-11-09T10:16:11.201Z,36.47
2017-11-09T10:17:13.680Z,35.70
2017-11-09T10:18:16.176Z,35.13
2017-11-09T10:19:18.654Z,35.08
2017-11-09T10:20:21.930Z,34.88
2017-11-09T10:21:24.404Z,35.17
2017-11-09T10:22:26.967Z,34.95
2017-11-09T10:23:29.451Z,33.38
2017-11-09T10:24:31.926Z,33.10
2017-11-09T10:25:34.462Z,35.22
2017-11-09T10:26:36.931Z,34.92
2017-11-09T10:27:40.217Z,35.00
2017-11-09T10:28:42.734Z,36.17
2017-11-09T10:29:46.011Z,34.33
2017-11-09T10:30:48.942Z,36.13
2017-11-09T10:31:51.434Z,34.53
2017-11-09T10:32:54.019Z,34.72
2017-11-09T10:33:56.538Z,35.25
2017-11-09T10:34:59.001Z,35.75
2017-11-09T10:36:02.252Z,34.15
2017-11-09T10:37:05.605Z,33.75
2017-11-09T10:38:08.076Z,35.53
2017-11-09T10:39:10.551Z,33.85
2017-11-09T10:40:13.026Z,37.05
2017-11-09T10:41:15.522Z,36.30
2017-11-09T10:42:18.056Z,35.65
2017-11-09T10:43:20.676Z,35.03
2017-11-09T10:44:23.955Z,34.83
2017-11-09T10:45:26.427Z,35.30
2017-11-09T10:46:29.562Z,35.40
2017-11-09T10:47:32.828Z,34.88
2017-11-09T10:48:35.361Z,36.50
2017-11-09T10:49:37.829Z,36.35
2017-11-09T10:50:41.102Z,34.95
2017-11-09T10:51:43.563Z,35.20
2017-11-09T10:52:46.063Z,34.67
2017-11-09T10:53:48.527Z,34.25
2017-11-09T10:54:50.990Z,35.92
2017-11-09T10:55:54.345Z,35.15
2017-11-09T10:56:56.832Z,34.35
2017-11-09T10:57:59.323Z,34.80
2017-11-09T10:59:01.772Z,36.40
2017-11-09T11:00:04.236Z,35.47
2017-11-09T11:01:07.489Z,34.75
2017-11-09T11:02:09.952Z,34.40
2017-11-09T11:03:12.474Z,35.03
2017-11-09T11:04:14.939Z,34.75
2017-11-09T11:05:18.198Z,34.90
2017-11-09T11:06:21.449Z,36.78
2017-11-09T11:07:24.023Z,34.78
2017-11-09T11:08:26.508Z,36.05
2017-11-09T11:09:28.994Z,35.58
2017-11-09T11:10:31.455Z,35.08
2017-11-09T11:11:33.985Z,35.15
2017-11-09T11:12:36.517Z,33.10
2017-11-09T11:13:38.991Z,34.17
2017-11-09T11:14:41.464Z,36.95
2017-11-09T11:15:44.641Z,37.60
2017-11-09T11:16:47.124Z,36.15
2017-11-09T11:17:49.618Z,37.15
2017-11-09T11:18:53.004Z,36.55
2017-11-09T11:19:55.499Z,37.58
2017-11-09T11:20:58.771Z,37.05
2017-11-09T11:22:01.252Z,38.75
2017-11-09T11:23:03.717Z,36.88
2017-11-09T11:24:06.201Z,38.72
2017-11-09T11:25:08.677Z,36.97
2017-11-09T11:26:11.150Z,37.85
2017-11-09T11:27:14.423Z,40.22
2017-11-09T11:28:16.919Z,40.50
2017-11-09T11:29:19.387Z,39.10
2017-11-09T11:30:21.919Z,41.20
2017-11-09T11:31:24.605Z,40.67
2017-11-09T11:32:28.002Z,40.12
2017-11-09T11:34:38.044Z,41.33
2017-11-09T11:35:40.518Z,39.38
2017-11-09T11:36:43.001Z,39.08
2017-11-09T11:37:45.744Z,39.53
2017-11-09T11:38:48.222Z,40.58
2017-11-09T11:39:51.455Z,40.45
2017-11-09T11:40:53.944Z,41.65
2017-11-09T11:41:56.408Z,39.92
2017-11-09T11:42:59.284Z,41.30
2017-11-09T11:44:01.808Z,43.25
2017-11-09T11:45:04.274Z,39.28
2017-11-09T11:46:06.743Z,41.67
2017-11-09T11:47:09.214Z,39.40
2017-11-09T11:48:11.718Z,38.90
2017-11-09T11:49:14.188Z,41.40
2017-11-09T11:50:17.423Z,41.42
2017-11-09T11:51:19.889Z,40.17
2017-11-09T11:52:22.388Z,40.88
2017-11-09T11:53:24.947Z,38.05
2017-11-09T11:54:27.435Z,39.55
2017-11-09T11:55:29.896Z,39.67
2017-11-09T11:56:32.362Z,38.90
2017-11-09T11:57:34.893Z,39.95
2017-11-09T11:58:37.471Z,38.35
2017-11-09T11:59:39.940Z,37.47
2017-11-09T12:01:50.940Z,36.75
2017-11-09T12:02:55.155Z,37.00
2017-11-09T12:03:57.639Z,35.80
2017-11-09T12:05:00.999Z,37.63
2017-11-09T12:06:04.223Z,37.40
2017-11-09T12:07:06.687Z,36.35
2017-11-09T12:08:09.184Z,36.55
2017-11-09T12:09:12.475Z,38.15
2017-11-09T12:10:14.957Z,35.20
2017-11-09T12:11:18.190Z,35.92
2017-11-09T12:12:23.499Z,36.38
2017-11-09T12:13:26.019Z,37.42
2017-11-09T12:14:29.870Z,36.25
2017-11-09T12:15:33.092Z,35.22
2017-11-09T12:16:35.612Z,34.60
2017-11-09T12:17:38.192Z,34.42
2017-11-09T12:18:40.723Z,35.05
2017-11-09T12:19:43.208Z,33.95
2017-11-09T12:20:45.701Z,35.30
2017-11-09T12:21:48.181Z,36.67
2017-11-09T12:22:50.703Z,35.00
2017-11-09T12:23:53.239Z,36.15
2017-11-09T12:24:55.713Z,35.17
2017-11-09T12:25:58.319Z,36.80
2017-11-09T12:27:00.835Z,35.25
2017-11-09T12:28:03.449Z,36.90
2017-11-09T12:29:05.982Z,35.75
2017-11-09T12:30:08.464Z,36.13
2017-11-09T12:31:10.940Z,36.28
2017-11-09T12:32:13.454Z,36.08
2017-11-09T12:33:15.939Z,37.03
2017-11-09T12:34:18.386Z,35.67
2017-11-09T12:35:20.998Z,37.88
2017-11-09T12:36:24.310Z,38.13
2017-11-09T12:37:26.795Z,37.40
2017-11-09T12:38:29.367Z,39.67
2017-11-09T12:39:31.832Z,39.17
2017-11-09T12:40:34.349Z,39.00
2017-11-09T12:41:37.636Z,36.45
2017-11-09T12:42:40.103Z,36.33
2017-11-09T12:43:42.661Z,40.78
2017-11-09T12:44:45.131Z,35.42
2017-11-09T12:45:47.624Z,36.85
2017-11-09T12:46:50.095Z,36.63
2017-11-09T12:47:52.576Z,35.25
2017-11-09T12:48:55.049Z,36.10
2017-11-09T12:49:58.297Z,35.40
2017-11-09T12:51:01.535Z,36.95
2017-11-09T12:52:03.999Z,35.50
2017-11-09T12:53:06.515Z,37.55
2017-11-09T12:54:08.975Z,34.92
2017-11-09T12:55:11.450Z,35.70
2017-11-09T12:56:14.687Z,35.83
2017-11-09T12:57:17.920Z,36.80
2017-11-09T12:58:20.485Z,37.00
2017-11-09T12:59:22.937Z,37.30
2017-11-09T13:00:25.410Z,37.88
2017-11-09T13:01:28.679Z,37.97
2017-11-09T13:02:31.151Z,37.35
2017-11-09T13:03:34.532Z,38.63
2017-11-09T13:04:37.783Z,40.00
2017-11-09T13:05:40.243Z,36.15
2017-11-09T13:06:42.697Z,36.47
2017-11-09T13:07:45.181Z,38.40
2017-11-09T13:08:47.708Z,36.53
2017-11-09T13:09:50.181Z,36.97
2017-11-09T13:10:53.426Z,37.78
2017-11-09T13:11:56.666Z,38.33
2017-11-09T13:12:59.950Z,38.17
2017-11-09T13:14:03.226Z,38.08
2017-11-09T13:15:05.690Z,37.45
2017-11-09T13:16:08.928Z,38.15
2017-11-09T13:17:12.164Z,36.42
2017-11-09T13:18:15.402Z,34.65
2017-11-09T13:19:22.438Z,36.58
2017-11-09T13:20:25.662Z,34.47
2017-11-09T13:21:28.169Z,33.83
2017-11-09T13:22:30.649Z,34.42
2017-11-09T13:23:33.121Z,33.85
2017-11-09T13:24:35.631Z,33.25
2017-11-09T13:25:38.130Z,37.17
2017-11-09T13:26:40.623Z,35.83
2017-11-09T13:27:43.086Z,34.70
2017-11-09T13:28:45.560Z,36.05
2017-11-09T13:29:48.032Z,35.00
2017-11-09T13:30:50.554Z,35.03
2017-11-09T13:31:53.031Z,34.78
2017-11-09T13:32:55.598Z,34.63
2017-11-09T13:33:58.267Z,34.88
2017-11-09T13:35:00.811Z,35.78